Test XHTML 1.0 Strict Page for WU-History Testing
Station Historical Data
 
Daily Summary for March 30, 2017 Units:  Both    English   Metric
« Previous Day
Next Day »
Daily Weekly Monthly Yearly Custom
  Current: High: Low: Average:
Temperature: 58.5 °F /  14.7 °C 59.0 °F /  15 °C 52.7 °F /  11.5 °C 54.4 °F /  12.4 °C
Dew Point: 56.7 °F /  13.7 °C 57.6 °F /  14.2 °C 52.7 °F /  11.5 °C 54.2 °F /  12.3 °C
Humidity: 94 % 100 % 92 % 99 %
Wind Speed: 5.8 mph /  9.3 km/h 13.8 mph /  22.2 km/h - 6.9 mph /  11.1 km/h
Wind Gust: 5.8 mph /  9.3 km/h 13.8 mph /  22.2 km/h - -
Wind:South - - South
Pressure: 30.03 in /  1016.8 hPa 30.05 in /  1017.5 hPa 30.02 in /  1016.5 hPa -
Precipitation: 0.02 in /  0.51 mm      
Historical Graphs
 
 
Weather-Above Climate History
Untitled
Tabular Data for March 30, 2017
Time Temperature Dew Point Pressure Wind Wind Speed Wind Gust Humidity Rainfall Rate (Hourly) solar Conditions
00:03 53.8 °F /  12.1 °C 53.8 °F /  12.1 °C 30.04 in /  1017.2 hPa WSW 10.4 mph /  16.7 km/h 10.4 mph /  16.7 km/h 100 % 0.01 in /  0.25 mm 13.5 W/m2 OVC
00:09 53.6 °F /  12 °C 53.6 °F /  12 °C 30.05 in /  1017.5 hPa SE 5.8 mph /  9.3 km/h 5.8 mph /  9.3 km/h 100 % 0.01 in /  0.25 mm 0.0 W/m2 OVC
00:14 53.4 °F /  11.9 °C 53.4 °F /  11.9 °C 30.05 in /  1017.5 hPa SE 10.9 mph /  17.5 km/h 10.9 mph /  17.5 km/h 100 % 0.01 in /  0.25 mm 0.0 W/m2 OVC
00:19 53.6 °F /  12 °C 53.6 °F /  12 °C 30.05 in /  1017.5 hPa ESE 5.4 mph /  8.7 km/h 5.4 mph /  8.7 km/h 100 % 0.01 in /  0.25 mm 19.5 W/m2 OVC
00:24 53.6 °F /  12 °C 53.6 °F /  12 °C 30.05 in /  1017.5 hPa SSE 9.2 mph /  14.8 km/h 9.2 mph /  14.8 km/h 100 % 0.01 in /  0.25 mm 18.0 W/m2 OVC
00:29 53.4 °F /  11.9 °C 53.4 °F /  11.9 °C 30.05 in /  1017.5 hPa WSW 9.2 mph /  14.8 km/h 9.2 mph /  14.8 km/h 100 % 0.01 in /  0.25 mm 0.0 W/m2 OVC
00:34 53.6 °F /  12 °C 53.6 °F /  12 °C 30.04 in /  1017.2 hPa SSE 10.4 mph /  16.7 km/h 10.4 mph /  16.7 km/h 100 % 0.01 in /  0.25 mm 21.0 W/m2 OVC
00:40 53.6 °F /  12 °C 53.6 °F /  12 °C 30.05 in /  1017.5 hPa SE 10.9 mph /  17.5 km/h 10.9 mph /  17.5 km/h 100 % 0.01 in /  0.25 mm 21.0 W/m2 OVC
00:45 53.8 °F /  12.1 °C 53.8 °F /  12.1 °C 30.05 in /  1017.5 hPa SSE 4.6 mph /  7.4 km/h 4.6 mph /  7.4 km/h 100 % 0.01 in /  0.25 mm 0.0 W/m2 OVC
00:50 53.8 °F /  12.1 °C 53.8 °F /  12.1 °C 30.05 in /  1017.5 hPa SSE 10.4 mph /  16.7 km/h 10.4 mph /  16.7 km/h 100 % 0.00 in /  0 mm 27.0 W/m2 OVC
00:55 53.8 °F /  12.1 °C 53.8 °F /  12.1 °C 30.05 in /  1017.5 hPa SSE 9.9 mph /  15.9 km/h 9.9 mph /  15.9 km/h 100 % 0.00 in /  0 mm 15.0 W/m2 OVC
01:00 53.8 °F /  12.1 °C 53.8 °F /  12.1 °C 30.04 in /  1017.2 hPa SSE 8.1 mph /  13 km/h 8.1 mph /  13 km/h 100 % 0.00 in /  0 mm 0.0 W/m2 OVC
01:05 53.8 °F /  12.1 °C 53.8 °F /  12.1 °C 30.05 in /  1017.5 hPa SSW 5.9 mph /  9.5 km/h 5.9 mph /  9.5 km/h 100 % 0.00 in /  0 mm 27.0 W/m2 RA
01:10 53.8 °F /  12.1 °C 53.8 °F /  12.1 °C 30.05 in /  1017.5 hPa WNW 9.2 mph /  14.8 km/h 9.2 mph /  14.8 km/h 100 % 0.00 in /  0 mm 0.0 W/m2 OVC
01:15 54.0 °F /  12.2 °C 54.0 °F /  12.2 °C 30.05 in /  1017.5 hPa SSE 6.9 mph /  11.1 km/h 6.9 mph /  11.1 km/h 100 % 0.00 in /  0 mm 0.0 W/m2 OVC
01:20 53.8 °F /  12.1 °C 53.8 °F /  12.1 °C 30.05 in /  1017.5 hPa SSE 2.3 mph /  3.7 km/h 2.3 mph /  3.7 km/h 100 % 0.00 in /  0 mm 28.5 W/m2 OVC
01:25 54.0 °F /  12.2 °C 54.0 °F /  12.2 °C 30.05 in /  1017.5 hPa WSW 8.1 mph /  13 km/h 8.1 mph /  13 km/h 100 % 0.00 in /  0 mm 0.0 W/m2 OVC
01:30 54.0 °F /  12.2 °C 54.0 °F /  12.2 °C 30.05 in /  1017.5 hPa SW 2.8 mph /  4.5 km/h 2.8 mph /  4.5 km/h 100 % 0.00 in /  0 mm 0.0 W/m2 OVC
01:35 54.0 °F /  12.2 °C 54.0 °F /  12.2 °C 30.05 in /  1017.5 hPa SE 3.9 mph /  6.3 km/h 3.9 mph /  6.3 km/h 100 % 0.00 in /  0 mm 19.5 W/m2 OVC
01:40 54.1 °F /  12.3 °C 54.1 °F /  12.3 °C 30.05 in /  1017.5 hPa South 6.6 mph /  10.6 km/h 6.6 mph /  10.6 km/h 100 % 0.00 in /  0 mm 13.5 W/m2 OVC
01:45 54.0 °F /  12.2 °C 54.0 °F /  12.2 °C 30.05 in /  1017.5 hPa WSW 5.8 mph /  9.3 km/h 5.8 mph /  9.3 km/h 100 % 0.00 in /  0 mm 0.0 W/m2 OVC
01:50 54.0 °F /  12.2 °C 54.0 °F /  12.2 °C 30.05 in /  1017.5 hPa ESE 5.1 mph /  8.2 km/h 5.1 mph /  8.2 km/h 100 % 0.00 in /  0 mm 30.0 W/m2 OVC
01:55 54.0 °F /  12.2 °C 54.0 °F /  12.2 °C 30.05 in /  1017.5 hPa SSW 8.1 mph /  13 km/h 8.1 mph /  13 km/h 100 % 0.00 in /  0 mm 27.0 W/m2 OVC
02:00 54.0 °F /  12.2 °C 54.0 °F /  12.2 °C 30.05 in /  1017.5 hPa SSE 6.9 mph /  11.1 km/h 6.9 mph /  11.1 km/h 100 % 0.00 in /  0 mm 0.0 W/m2 OVC
02:05 54.0 °F /  12.2 °C 54.0 °F /  12.2 °C 30.04 in /  1017.2 hPa SSE 4.6 mph /  7.4 km/h 4.6 mph /  7.4 km/h 100 % 0.00 in /  0 mm 33.0 W/m2 OVC
02:10 54.0 °F /  12.2 °C 54.0 °F /  12.2 °C 30.04 in /  1017.2 hPa South 9.8 mph /  15.8 km/h 9.8 mph /  15.8 km/h 100 % 0.00 in /  0 mm 31.5 W/m2
02:15 54.0 °F /  12.2 °C 54.0 °F /  12.2 °C 30.04 in /  1017.2 hPa SSE 6.9 mph /  11.1 km/h 6.9 mph /  11.1 km/h 100 % 0.00 in /  0 mm 0.0 W/m2 OVC
02:20 54.0 °F /  12.2 °C 54.0 °F /  12.2 °C 30.03 in /  1016.8 hPa SSE 5.8 mph /  9.3 km/h 5.8 mph /  9.3 km/h 100 % 0.00 in /  0 mm 30.0 W/m2
02:26 53.8 °F /  12.1 °C 53.8 °F /  12.1 °C 30.04 in /  1017.2 hPa SSE 3.5 mph /  5.6 km/h 3.5 mph /  5.6 km/h 100 % 0.00 in /  0 mm 18.0 W/m2 CLR
02:31 53.6 °F /  12 °C 53.6 °F /  12 °C 30.03 in /  1016.8 hPa West 3.5 mph /  5.6 km/h 3.5 mph /  5.6 km/h 100 % 0.00 in /  0 mm 0.0 W/m2
02:36 54.0 °F /  12.2 °C 54.0 °F /  12.2 °C 30.03 in /  1016.8 hPa WSW 5.5 mph /  8.9 km/h 5.5 mph /  8.9 km/h 100 % 0.00 in /  0 mm 13.5 W/m2
02:41 53.8 °F /  12.1 °C 53.8 °F /  12.1 °C 30.03 in /  1016.8 hPa South 8.8 mph /  14.2 km/h 8.8 mph /  14.2 km/h 100 % 0.00 in /  0 mm 21.0 W/m2
02:46 53.8 °F /  12.1 °C 53.8 °F /  12.1 °C 30.03 in /  1016.8 hPa South 8.1 mph /  13 km/h 8.1 mph /  13 km/h 100 % 0.00 in /  0 mm 30.0 W/m2 OVC
02:51 53.8 °F /  12.1 °C 53.8 °F /  12.1 °C 30.03 in /  1016.8 hPa West 5.8 mph /  9.3 km/h 5.8 mph /  9.3 km/h 100 % 0.00 in /  0 mm 0.0 W/m2 CLR
02:56 53.6 °F /  12 °C 53.6 °F /  12 °C 30.03 in /  1016.8 hPa South 4.0 mph /  6.4 km/h 4.0 mph /  6.4 km/h 100 % 0.00 in /  0 mm 22.5 W/m2 CLR
03:01 53.6 °F /  12 °C 53.6 °F /  12 °C 30.03 in /  1016.8 hPa South 5.0 mph /  8 km/h 5.0 mph /  8 km/h 100 % 0.00 in /  0 mm 0.0 W/m2
03:06 53.6 °F /  12 °C 53.6 °F /  12 °C 30.03 in /  1016.8 hPa SSE 11.5 mph /  18.5 km/h 11.5 mph /  18.5 km/h 100 % 0.00 in /  0 mm 21.0 W/m2
03:11 53.6 °F /  12 °C 53.6 °F /  12 °C 30.03 in /  1016.8 hPa SSE 6.9 mph /  11.1 km/h 6.9 mph /  11.1 km/h 100 % 0.00 in /  0 mm 21.0 W/m2
03:16 53.6 °F /  12 °C 53.6 °F /  12 °C 30.03 in /  1016.8 hPa SE 4.0 mph /  6.4 km/h 4.0 mph /  6.4 km/h 100 % 0.00 in /  0 mm 0.0 W/m2 CLR
03:21 53.6 °F /  12 °C 53.6 °F /  12 °C 30.02 in /  1016.5 hPa SSE 6.9 mph /  11.1 km/h 6.9 mph /  11.1 km/h 100 % 0.00 in /  0 mm 21.0 W/m2 CLR
03:26 53.6 °F /  12 °C 53.6 °F /  12 °C 30.03 in /  1016.8 hPa SE 4.6 mph /  7.4 km/h 4.6 mph /  7.4 km/h 100 % 0.00 in /  0 mm 22.5 W/m2
03:31 53.6 °F /  12 °C 53.6 °F /  12 °C 30.02 in /  1016.5 hPa South 12.7 mph /  20.4 km/h 12.7 mph /  20.4 km/h 100 % 0.00 in /  0 mm 0.0 W/m2 OVC
03:36 53.8 °F /  12.1 °C 53.8 °F /  12.1 °C 30.03 in /  1016.8 hPa WSW 8.0 mph /  12.9 km/h 8.0 mph /  12.9 km/h 100 % 0.00 in /  0 mm 0.0 W/m2 OVC
03:41 53.8 °F /  12.1 °C 53.8 °F /  12.1 °C 30.03 in /  1016.8 hPa South 5.9 mph /  9.5 km/h 5.9 mph /  9.5 km/h 100 % 0.00 in /  0 mm 19.5 W/m2 OVC
03:46 53.8 °F /  12.1 °C 53.8 °F /  12.1 °C 30.03 in /  1016.8 hPa SE 7.2 mph /  11.6 km/h 7.2 mph /  11.6 km/h 100 % 0.00 in /  0 mm 0.0 W/m2 OVC
03:51 53.8 °F /  12.1 °C 53.8 °F /  12.1 °C 30.03 in /  1016.8 hPa SSW 5.4 mph /  8.7 km/h 5.4 mph /  8.7 km/h 100 % 0.00 in /  0 mm 0.0 W/m2 OVC
03:56 53.8 °F /  12.1 °C 53.8 °F /  12.1 °C 30.03 in /  1016.8 hPa South 10.6 mph /  17.1 km/h 10.6 mph /  17.1 km/h 100 % 0.00 in /  0 mm 25.5 W/m2 OVC
04:02 54.0 °F /  12.2 °C 54.0 °F /  12.2 °C 30.03 in /  1016.8 hPa West 9.2 mph /  14.8 km/h 9.2 mph /  14.8 km/h 100 % 0.00 in /  0 mm 0.0 W/m2 OVC
04:07 53.8 °F /  12.1 °C 53.8 °F /  12.1 °C 30.03 in /  1016.8 hPa South 5.9 mph /  9.5 km/h 5.9 mph /  9.5 km/h 100 % 0.00 in /  0 mm 0.0 W/m2 OVC
04:12 54.0 °F /  12.2 °C 54.0 °F /  12.2 °C 30.03 in /  1016.8 hPa SSW 6.9 mph /  11.1 km/h 6.9 mph /  11.1 km/h 100 % 0.00 in /  0 mm 19.5 W/m2 OVC
04:17 54.0 °F /  12.2 °C 54.0 °F /  12.2 °C 30.02 in /  1016.5 hPa SW 9.7 mph /  15.6 km/h 9.7 mph /  15.6 km/h 100 % 0.00 in /  0 mm 0.0 W/m2 OVC
04:22 54.0 °F /  12.2 °C 54.0 °F /  12.2 °C 30.03 in /  1016.8 hPa SW 11.0 mph /  17.7 km/h 11.0 mph /  17.7 km/h 100 % 0.00 in /  0 mm 0.0 W/m2 OVC
04:27 54.0 °F /  12.2 °C 54.0 °F /  12.2 °C 30.02 in /  1016.5 hPa South 4.8 mph /  7.7 km/h 4.8 mph /  7.7 km/h 100 % 0.00 in /  0 mm 15.0 W/m2
04:32 53.8 °F /  12.1 °C 53.8 °F /  12.1 °C 30.02 in /  1016.5 hPa SSE 9.2 mph /  14.8 km/h 9.2 mph /  14.8 km/h 100 % 0.00 in /  0 mm 0.0 W/m2
04:37 53.8 °F /  12.1 °C 53.8 °F /  12.1 °C 30.02 in /  1016.5 hPa South 5.8 mph /  9.3 km/h 5.8 mph /  9.3 km/h 100 % 0.00 in /  0 mm 0.0 W/m2 OVC
04:42 54.0 °F /  12.2 °C 54.0 °F /  12.2 °C 30.02 in /  1016.5 hPa SW 6.9 mph /  11.1 km/h 6.9 mph /  11.1 km/h 100 % 0.00 in /  0 mm 19.5 W/m2 OVC
04:47 53.8 °F /  12.1 °C 53.8 °F /  12.1 °C 30.02 in /  1016.5 hPa South 1.2 mph /  1.9 km/h 1.2 mph /  1.9 km/h 100 % 0.00 in /  0 mm 0.0 W/m2
04:52 53.8 °F /  12.1 °C 53.8 °F /  12.1 °C 30.02 in /  1016.5 hPa South 6.9 mph /  11.1 km/h 6.9 mph /  11.1 km/h 100 % 0.00 in /  0 mm 0.0 W/m2 OVC
04:57 53.8 °F /  12.1 °C 53.8 °F /  12.1 °C 30.02 in /  1016.5 hPa South 3.6 mph /  5.8 km/h 3.6 mph /  5.8 km/h 100 % 0.00 in /  0 mm 19.5 W/m2 OVC
05:02 53.6 °F /  12 °C 53.6 °F /  12 °C 30.02 in /  1016.5 hPa South 9.2 mph /  14.8 km/h 9.2 mph /  14.8 km/h 100 % 0.00 in /  0 mm 0.0 W/m2 CLR
05:07 53.4 °F /  11.9 °C 53.4 °F /  11.9 °C 30.02 in /  1016.5 hPa SW 2.3 mph /  3.7 km/h 2.3 mph /  3.7 km/h 100 % 0.00 in /  0 mm 0.0 W/m2 CLR
05:12 53.4 °F /  11.9 °C 53.4 °F /  11.9 °C 30.02 in /  1016.5 hPa SSW 2.3 mph /  3.7 km/h 2.3 mph /  3.7 km/h 100 % 0.00 in /  0 mm 21.0 W/m2
05:18 53.4 °F /  11.9 °C 53.4 °F /  11.9 °C 30.02 in /  1016.5 hPa South 4.6 mph /  7.4 km/h 4.6 mph /  7.4 km/h 100 % 0.00 in /  0 mm 0.0 W/m2 OVC
05:23 53.6 °F /  12 °C 53.6 °F /  12 °C 30.02 in /  1016.5 hPa South 5.8 mph /  9.3 km/h 5.8 mph /  9.3 km/h 100 % 0.00 in /  0 mm 0.0 W/m2 OVC
05:28 53.6 °F /  12 °C 53.6 °F /  12 °C 30.02 in /  1016.5 hPa SSE 3.6 mph /  5.8 km/h 3.6 mph /  5.8 km/h 100 % 0.00 in /  0 mm 21.0 W/m2 OVC
05:33 53.6 °F /  12 °C 53.6 °F /  12 °C 30.02 in /  1016.5 hPa SSE 13.8 mph /  22.2 km/h 13.8 mph /  22.2 km/h 100 % 0.00 in /  0 mm 0.0 W/m2 CLR
05:38 53.4 °F /  11.9 °C 53.4 °F /  11.9 °C 30.02 in /  1016.5 hPa SSE 6.9 mph /  11.1 km/h 6.9 mph /  11.1 km/h 100 % 0.00 in /  0 mm 0.0 W/m2 CLR
05:43 53.4 °F /  11.9 °C 53.4 °F /  11.9 °C 30.02 in /  1016.5 hPa WSW 3.5 mph /  5.6 km/h 3.5 mph /  5.6 km/h 100 % 0.00 in /  0 mm 0.0 W/m2 CLR
05:48 53.1 °F /  11.7 °C 53.1 °F /  11.7 °C 30.02 in /  1016.5 hPa SE 5.1 mph /  8.2 km/h 5.1 mph /  8.2 km/h 100 % 0.00 in /  0 mm 18.0 W/m2 CLR
05:53 52.9 °F /  11.6 °C 52.9 °F /  11.6 °C 30.02 in /  1016.5 hPa SE 1.7 mph /  2.7 km/h 1.7 mph /  2.7 km/h 100 % 0.00 in /  0 mm 0.0 W/m2 CLR
05:58 52.7 °F /  11.5 °C 52.7 °F /  11.5 °C 30.02 in /  1016.5 hPa Calm     100 % 0.00 in /  0 mm 0.0 W/m2 CLR
06:03 52.7 °F /  11.5 °C 52.7 °F /  11.5 °C 30.02 in /  1016.5 hPa SSE 1.9 mph /  3.1 km/h 1.9 mph /  3.1 km/h 100 % 0.00 in /  0 mm 28.5 W/m2
06:08 52.7 °F /  11.5 °C 52.7 °F /  11.5 °C 30.02 in /  1016.5 hPa SE 3.5 mph /  5.6 km/h 3.5 mph /  5.6 km/h 100 % 0.00 in /  0 mm 0.0 W/m2
06:13 52.9 °F /  11.6 °C 52.9 °F /  11.6 °C 30.02 in /  1016.5 hPa South 3.5 mph /  5.6 km/h 3.5 mph /  5.6 km/h 100 % 0.00 in /  0 mm 0.0 W/m2
06:18 52.9 °F /  11.6 °C 52.9 °F /  11.6 °C 30.02 in /  1016.5 hPa SSE 5.5 mph /  8.9 km/h 5.5 mph /  8.9 km/h 100 % 0.00 in /  0 mm 12.0 W/m2
06:23 53.1 °F /  11.7 °C 53.1 °F /  11.7 °C 30.02 in /  1016.5 hPa SSE 6.9 mph /  11.1 km/h 6.9 mph /  11.1 km/h 100 % 0.00 in /  0 mm 0.0 W/m2
06:28 53.1 °F /  11.7 °C 53.1 °F /  11.7 °C 30.02 in /  1016.5 hPa SW 3.9 mph /  6.3 km/h 3.9 mph /  6.3 km/h 100 % 0.00 in /  0 mm 0.0 W/m2 OVC
06:33 53.4 °F /  11.9 °C 53.4 °F /  11.9 °C 30.02 in /  1016.5 hPa SW 6.6 mph /  10.6 km/h 6.6 mph /  10.6 km/h 100 % 0.00 in /  0 mm 10.5 W/m2 OVC
06:38 53.2 °F /  11.8 °C 53.2 °F /  11.8 °C 30.02 in /  1016.5 hPa SSE 2.3 mph /  3.7 km/h 2.3 mph /  3.7 km/h 100 % 0.00 in /  0 mm 0.0 W/m2
06:43 53.4 °F /  11.9 °C 53.4 °F /  11.9 °C 30.02 in /  1016.5 hPa South 5.8 mph /  9.3 km/h 5.8 mph /  9.3 km/h 100 % 0.00 in /  0 mm 10.5 W/m2 CLR
06:48 53.4 °F /  11.9 °C 53.4 °F /  11.9 °C 30.02 in /  1016.5 hPa SE 6.9 mph /  11.1 km/h 6.9 mph /  11.1 km/h 100 % 0.00 in /  0 mm 15.0 W/m2 CLR
06:53 53.4 °F /  11.9 °C 53.4 °F /  11.9 °C 30.02 in /  1016.5 hPa SSE 6.9 mph /  11.1 km/h 6.9 mph /  11.1 km/h 100 % 0.00 in /  0 mm 13.5 W/m2 CLR
06:58 53.4 °F /  11.9 °C 53.4 °F /  11.9 °C 30.02 in /  1016.5 hPa South 9.2 mph /  14.8 km/h 9.2 mph /  14.8 km/h 100 % 0.00 in /  0 mm 12.0 W/m2 CLR
07:04 53.4 °F /  11.9 °C 53.4 °F /  11.9 °C 30.02 in /  1016.5 hPa South 10.4 mph /  16.7 km/h 10.4 mph /  16.7 km/h 100 % 0.00 in /  0 mm 12.0 W/m2 CLR
07:09 53.6 °F /  12 °C 53.6 °F /  12 °C 30.02 in /  1016.5 hPa SSW 3.5 mph /  5.6 km/h 3.5 mph /  5.6 km/h 100 % 0.00 in /  0 mm 12.0 W/m2 CLR
07:14 53.6 °F /  12 °C 53.6 °F /  12 °C 30.02 in /  1016.5 hPa South 10.4 mph /  16.7 km/h 10.4 mph /  16.7 km/h 100 % 0.00 in /  0 mm 12.0 W/m2 CLR
07:19 53.6 °F /  12 °C 53.6 °F /  12 °C 30.02 in /  1016.5 hPa South 11.5 mph /  18.5 km/h 11.5 mph /  18.5 km/h 100 % 0.00 in /  0 mm 25.5 W/m2 CLR
07:24 53.6 °F /  12 °C 53.6 °F /  12 °C 30.02 in /  1016.5 hPa SSW 4.7 mph /  7.6 km/h 4.7 mph /  7.6 km/h 100 % 0.00 in /  0 mm 30.0 W/m2 CLR
07:29 53.6 °F /  12 °C 53.6 °F /  12 °C 30.02 in /  1016.5 hPa South 1.2 mph /  1.9 km/h   100 % 0.00 in /  0 mm 0.5 W/m2 CLR
07:34 53.6 °F /  12 °C 53.6 °F /  12 °C 30.02 in /  1016.5 hPa SSE 3.0 mph /  4.8 km/h 3.0 mph /  4.8 km/h 100 % 0.00 in /  0 mm 27.0 W/m2 CLR
07:39 53.8 °F /  12.1 °C 53.8 °F /  12.1 °C 30.02 in /  1016.5 hPa SSE 12.0 mph /  19.3 km/h 12.0 mph /  19.3 km/h 100 % 0.00 in /  0 mm 34.5 W/m2 CLR
07:44 53.8 °F /  12.1 °C 53.8 °F /  12.1 °C 30.02 in /  1016.5 hPa WNW 5.0 mph /  8 km/h 5.0 mph /  8 km/h 100 % 0.00 in /  0 mm 2.6 W/m2 CLR
07:49 54.0 °F /  12.2 °C 54.0 °F /  12.2 °C 30.02 in /  1016.5 hPa SSE 5.0 mph /  8 km/h 5.0 mph /  8 km/h 100 % 0.00 in /  0 mm 27.0 W/m2 CLR
07:54 54.0 °F /  12.2 °C 54.0 °F /  12.2 °C 30.03 in /  1016.8 hPa South 12.3 mph /  19.8 km/h 12.3 mph /  19.8 km/h 100 % 0.00 in /  0 mm 28.5 W/m2 CLR
07:59 54.0 °F /  12.2 °C 54.0 °F /  12.2 °C 30.02 in /  1016.5 hPa West 4.6 mph /  7.4 km/h 4.6 mph /  7.4 km/h 100 % 0.00 in /  0 mm 4.0 W/m2 CLR
08:04 54.1 °F /  12.3 °C 54.1 °F /  12.3 °C 30.02 in /  1016.5 hPa South 6.9 mph /  11.1 km/h 6.9 mph /  11.1 km/h 100 % 0.00 in /  0 mm 58.5 W/m2 OVC
08:09 54.3 °F /  12.4 °C 54.3 °F /  12.4 °C 30.02 in /  1016.5 hPa SSE 7.7 mph /  12.4 km/h 7.7 mph /  12.4 km/h 100 % 0.00 in /  0 mm 46.5 W/m2 OVC
08:14 54.3 °F /  12.4 °C 54.3 °F /  12.4 °C 30.02 in /  1016.5 hPa WSW 9.2 mph /  14.8 km/h 9.2 mph /  14.8 km/h 100 % 0.00 in /  0 mm 9.8 W/m2 OVC
08:17 54.5 °F /  12.5 °C 54.5 °F /  12.5 °C 30.03 in /  1016.8 hPa SSE 11.5 mph /  18.5 km/h 11.5 mph /  18.5 km/h 100 % 0.00 in /  0 mm 64.5 W/m2 OVC
08:22 54.5 °F /  12.5 °C 54.5 °F /  12.5 °C 30.03 in /  1016.8 hPa South 8.0 mph /  12.9 km/h 8.0 mph /  12.9 km/h 100 % 0.00 in /  0 mm 63.0 W/m2 OVC
08:27 54.7 °F /  12.6 °C 54.4 °F /  12.4 °C 30.03 in /  1016.8 hPa South 6.9 mph /  11.1 km/h 6.9 mph /  11.1 km/h 99 % 0.00 in /  0 mm 9.7 W/m2 OVC
08:32 54.9 °F /  12.7 °C 54.6 °F /  12.6 °C 30.03 in /  1016.8 hPa WSW 6.8 mph /  10.9 km/h 6.8 mph /  10.9 km/h 99 % 0.00 in /  0 mm 52.5 W/m2 OVC
08:37 54.9 °F /  12.7 °C 54.6 °F /  12.6 °C 30.03 in /  1016.8 hPa ESE 4.6 mph /  7.4 km/h 4.6 mph /  7.4 km/h 99 % 0.00 in /  0 mm 72.0 W/m2 OVC
08:42 55.2 °F /  12.9 °C 54.9 °F /  12.7 °C 30.03 in /  1016.8 hPa South 6.9 mph /  11.1 km/h 6.9 mph /  11.1 km/h 99 % 0.00 in /  0 mm 41.1 W/m2 BKN
08:48 55.6 °F /  13.1 °C 55.0 °F /  12.8 °C 30.03 in /  1016.8 hPa South 9.2 mph /  14.8 km/h 9.2 mph /  14.8 km/h 98 % 0.00 in /  0 mm 57.0 W/m2 OVC
08:52 55.6 °F /  13.1 °C 55.0 °F /  12.8 °C 30.03 in /  1016.8 hPa SE 4.3 mph /  6.9 km/h 4.3 mph /  6.9 km/h 98 % 0.00 in /  0 mm 55.5 W/m2 OVC
08:57 55.6 °F /  13.1 °C 55.0 °F /  12.8 °C 30.03 in /  1016.8 hPa SSE 5.8 mph /  9.3 km/h 5.8 mph /  9.3 km/h 98 % 0.00 in /  0 mm 13.0 W/m2 OVC
09:02 55.2 °F /  12.9 °C 54.7 °F /  12.6 °C 30.03 in /  1016.8 hPa South 12.8 mph /  20.6 km/h 12.8 mph /  20.6 km/h 98 % 0.00 in /  0 mm 48.0 W/m2 OVC
09:07 54.9 °F /  12.7 °C 54.9 °F /  12.7 °C 30.03 in /  1016.8 hPa SE 10.9 mph /  17.5 km/h 10.9 mph /  17.5 km/h 100 % 0.00 in /  0 mm 24.0 W/m2 OVC
09:12 54.5 °F /  12.5 °C 54.5 °F /  12.5 °C 30.03 in /  1016.8 hPa SSW 2.3 mph /  3.7 km/h 2.3 mph /  3.7 km/h 100 % 0.00 in /  0 mm 13.8 W/m2 OVC
09:17 54.3 °F /  12.4 °C 54.3 °F /  12.4 °C 30.03 in /  1016.8 hPa SE 8.1 mph /  13 km/h 8.1 mph /  13 km/h 100 % 0.01 in /  0.25 mm 48.0 W/m2 RA
09:22 54.3 °F /  12.4 °C 54.3 °F /  12.4 °C 30.03 in /  1016.8 hPa SSE 8.3 mph /  13.4 km/h 8.3 mph /  13.4 km/h 100 % 0.01 in /  0.25 mm 49.5 W/m2 RA
09:27 54.3 °F /  12.4 °C 54.3 °F /  12.4 °C 30.03 in /  1016.8 hPa SW 5.8 mph /  9.3 km/h 5.8 mph /  9.3 km/h 100 % 0.02 in /  0.51 mm 46.7 W/m2 RA
09:32 54.5 °F /  12.5 °C 54.5 °F /  12.5 °C 30.02 in /  1016.5 hPa WSW 3.5 mph /  5.6 km/h 3.5 mph /  5.6 km/h 100 % 0.02 in /  0.51 mm 85.5 W/m2 RA
09:37 54.7 °F /  12.6 °C 54.7 °F /  12.6 °C 30.02 in /  1016.5 hPa South 9.2 mph /  14.8 km/h 9.2 mph /  14.8 km/h 100 % 0.02 in /  0.51 mm 94.5 W/m2 RA
09:42 54.5 °F /  12.5 °C 54.5 °F /  12.5 °C 30.02 in /  1016.5 hPa SE 5.8 mph /  9.3 km/h 5.8 mph /  9.3 km/h 100 % 0.02 in /  0.51 mm 38.7 W/m2 OVC
09:47 54.7 °F /  12.6 °C 54.7 °F /  12.6 °C 30.02 in /  1016.5 hPa SE 6.9 mph /  11.1 km/h 6.9 mph /  11.1 km/h 100 % 0.02 in /  0.51 mm 78.0 W/m2 OVC
09:52 54.7 °F /  12.6 °C 54.7 °F /  12.6 °C 30.02 in /  1016.5 hPa SSE 6.5 mph /  10.5 km/h 6.5 mph /  10.5 km/h 100 % 0.02 in /  0.51 mm 126.0 W/m2 BKN
09:57 55.0 °F /  12.8 °C 55.0 °F /  12.8 °C 30.02 in /  1016.5 hPa SSE 5.9 mph /  9.5 km/h 5.9 mph /  9.5 km/h 100 % 0.02 in /  0.51 mm 189.8 W/m2 BKN
10:03 55.2 °F /  12.9 °C 55.2 °F /  12.9 °C 30.03 in /  1016.8 hPa SW 5.8 mph /  9.3 km/h 5.8 mph /  9.3 km/h 100 % 0.02 in /  0.51 mm 201.0 W/m2 FEW
10:08 55.4 °F /  13 °C 55.4 °F /  13 °C 30.03 in /  1016.8 hPa SSW 6.9 mph /  11.1 km/h 6.9 mph /  11.1 km/h 100 % 0.02 in /  0.51 mm 165.0 W/m2 BKN
10:13 55.8 °F /  13.2 °C 55.8 °F /  13.2 °C 30.03 in /  1016.8 hPa SSE 10.8 mph /  17.4 km/h 10.8 mph /  17.4 km/h 100 % 0.01 in /  0.25 mm 357.0 W/m2 CLR
10:18 56.7 °F /  13.7 °C 56.7 °F /  13.7 °C 30.03 in /  1016.8 hPa SSW 4.7 mph /  7.6 km/h 4.7 mph /  7.6 km/h 100 % 0.01 in /  0.25 mm 250.5 W/m2 BKN
10:23 57.0 °F /  13.9 °C 57.0 °F /  13.9 °C 30.03 in /  1016.8 hPa SSW 5.8 mph /  9.3 km/h 5.8 mph /  9.3 km/h 100 % 0.01 in /  0.25 mm 274.5 W/m2 BKN
10:28 57.0 °F /  13.9 °C 56.5 °F /  13.6 °C 30.03 in /  1016.8 hPa ESE 12.7 mph /  20.4 km/h 12.7 mph /  20.4 km/h 98 % 0.00 in /  0 mm 65.5 W/m2 OVC
10:34 56.7 °F /  13.7 °C 56.1 °F /  13.4 °C 30.03 in /  1016.8 hPa South 10.4 mph /  16.7 km/h 10.4 mph /  16.7 km/h 98 % 0.00 in /  0 mm 147.0 W/m2 OVC
10:39 56.5 °F /  13.6 °C 56.2 °F /  13.4 °C 30.03 in /  1016.8 hPa SSE 12.7 mph /  20.4 km/h 12.7 mph /  20.4 km/h 99 % 0.00 in /  0 mm 168.0 W/m2 OVC
10:44 56.5 °F /  13.6 °C 55.9 °F /  13.3 °C 30.03 in /  1016.8 hPa WSW 8.6 mph /  13.8 km/h 8.6 mph /  13.8 km/h 98 % 0.00 in /  0 mm 113.2 W/m2 BKN
10:49 57.2 °F /  14 °C 56.9 °F /  13.8 °C 30.03 in /  1016.8 hPa South 2.3 mph /  3.7 km/h 2.3 mph /  3.7 km/h 99 % 0.00 in /  0 mm 369.0 W/m2 SCT
10:54 58.5 °F /  14.7 °C 57.6 °F /  14.2 °C 30.02 in /  1016.5 hPa East 5.8 mph /  9.3 km/h 5.8 mph /  9.3 km/h 97 % 0.00 in /  0 mm 342.0 W/m2 SCT
10:59 58.5 °F /  14.7 °C 57.0 °F /  13.9 °C 30.02 in /  1016.5 hPa SSE 11.5 mph /  18.5 km/h 11.5 mph /  18.5 km/h 95 % 0.00 in /  0 mm 274.3 W/m2 BKN
11:04 58.8 °F /  14.9 °C 57.1 °F /  13.9 °C 30.03 in /  1016.8 hPa SW 10.4 mph /  16.7 km/h 10.4 mph /  16.7 km/h 94 % 0.00 in /  0 mm 168.0 W/m2 BKN
11:09 58.3 °F /  14.6 °C 56.6 °F /  13.7 °C 30.02 in /  1016.5 hPa SSW 9.2 mph /  14.8 km/h 9.2 mph /  14.8 km/h 94 % 0.00 in /  0 mm 158.2 W/m2 BKN
11:14 58.5 °F /  14.7 °C 57.0 °F /  13.9 °C 30.02 in /  1016.5 hPa SSE 4.6 mph /  7.4 km/h 4.6 mph /  7.4 km/h 95 % 0.00 in /  0 mm 268.0 W/m2 BKN
11:19 59.0 °F /  15 °C 57.0 °F /  13.9 °C 30.02 in /  1016.5 hPa South 9.2 mph /  14.8 km/h 9.2 mph /  14.8 km/h 93 % 0.00 in /  0 mm 184.5 W/m2 BKN
11:22 59.0 °F /  15 °C 56.7 °F /  13.7 °C 30.02 in /  1016.5 hPa WSW 13.1 mph /  21.1 km/h 13.1 mph /  21.1 km/h 92 % 0.00 in /  0 mm 133.5 W/m2 BKN
11:27 58.6 °F /  14.8 °C 56.6 °F /  13.7 °C 30.02 in /  1016.5 hPa SW 6.9 mph /  11.1 km/h 6.9 mph /  11.1 km/h 93 % 0.00 in /  0 mm 162.0 W/m2 BKN
11:32 58.3 °F /  14.6 °C 56.6 °F /  13.7 °C 30.02 in /  1016.5 hPa SE 9.2 mph /  14.8 km/h 9.2 mph /  14.8 km/h 94 % 0.00 in /  0 mm 108.0 W/m2 OVC
11:37 58.1 °F /  14.5 °C 56.7 °F /  13.7 °C 30.03 in /  1016.8 hPa WSW 10.4 mph /  16.7 km/h 10.4 mph /  16.7 km/h 95 % 0.00 in /  0 mm 132.0 W/m2 BKN
11:42 58.5 °F /  14.7 °C 56.7 °F /  13.7 °C 30.03 in /  1016.8 hPa South 5.8 mph /  9.3 km/h 5.8 mph /  9.3 km/h 94 % 0.00 in /  0 mm 172.6 W/m2 BKN
Wether-Above
Compliments of Weather Underground - 1.5 mb
Welcome to Weather-Above
Cheddleton weather station supplies various organisations with data from our weather station one of them is the weather Underground this information displayed here is coming from the weather Underground server 

If any information is used please acknowledge the source to www weather-above.com or weather Underground